Data for 03/20/2009

Time Sea-Level Adjusted Pressure Absolute Pressure Temperature Relative Humidity Dew Point   
(mb) (inHg) (mb) (inHg) (C) (F) (%) (C) (F)
00:05 1018 30.06 847 25.01 6.1 43.1 65 0 32.1
00:10 1018 30.06 847 25.01 6.1 43 64 -0.2 31.7
00:15 1018 30.06 847 25.01 6.2 43.2 63 -0.2 31.6
00:20 1018 30.06 847 25.01 6.3 43.3 63 -0.2 31.6
00:25 1018 30.06 847 25.01 6.3 43.4 64 -0 31.9
00:30 1018 30.06 847 25.01 6.1 43 66 0.2 32.3
00:35 1018 30.06 847 25.01 6 42.9 68 0.5 33
00:40 1018 30.06 847 25.01 6.1 42.9 71 1.1 34
00:45 1018 30.06 847 25.01 5.7 42.3 72 1 33.8
00:50 1018 30.06 847 25.01 5.8 42.5 71 0.9 33.6
00:55 1018 30.06 847 25.01 5.7 42.2 73 1.1 34
01:00 1018 30.06 847 25.01 5.6 42 72 1 33.8
01:05 1018 30.06 847 25.01 5.9 42.5 71 1.1 34
01:10 1018 30.06 847 25.01 5.8 42.4 74 1.5 34.7
01:15 1018 30.06 847 25.01 5.5 42 74 1.3 34.3
01:20 1018 30.06 847 25.01 5.3 41.5 76 1.4 34.4
01:25 1018 30.06 847 25.01 5.2 41.3 77 1.5 34.6
01:30 1018 30.06 847 25.01 5.1 41.2 77 1.3 34.4
01:35 1018 30.06 847 25.01 5 41 77 1.3 34.4
01:40 1018 30.06 847 25.01 5 40.9 77 1.3 34.4
01:45 1018 30.06 847 25.01 4.9 40.9 78 1.5 34.7
01:50 1018 30.06 847 25.01 5 41 78 1.5 34.7
01:55 1018 30.06 847 25.01 5.1 41.1 78 1.5 34.7
02:00 1018 30.06 847 25.01 5 41 78 1.5 34.8
02:05 1018 30.06 847 25.01 4.9 40.8 77 1.3 34.3
02:10 1018 30.06 847 25.01 5 41 78 1.4 34.6
02:15 1018 30.06 847 25.01 5 40.9 77 1.3 34.4
02:20 1018 30.06 847 25.01 4.9 40.8 78 1.4 34.5
02:25 1018 30.06 847 25.01 4.8 40.7 79 1.5 34.7
02:30 1018 30.06 847 25.01 4.7 40.5 78 1.2 34.1
02:35 1018 30.06 847 25.01 4.7 40.4 78 1.1 34
02:40 1018 30.06 847 25.01 4.7 40.5 77 1.1 34
02:45 1018 30.06 847 25.01 4.5 40.1 78 1.1 33.9
02:50 1018 30.06 847 25.01 4.3 39.7 79 0.9 33.7
02:55 1018 30.06 847 25.01 4.3 39.8 77 0.7 33.3
03:00 1018 30.06 847 25.01 4.5 40.2 77 0.9 33.6
03:05 1018 30.06 847 25.01 4.5 40.1 77 0.9 33.6
03:10 1018 30.06 847 25.01 4.5 40.1 77 0.8 33.5
03:15 1018 30.06 847 25.01 4.6 40.2 76 0.8 33.4
03:20 1018 30.06 847 25.01 4.6 40.3 77 0.9 33.7
03:25 1018 30.06 847 25.01 4.4 39.8 77 0.8 33.4
03:30 1018 30.06 847 25.01 4.4 39.9 78 0.8 33.5
03:35 1018 30.06 847 25.01 4.3 39.7 78 0.7 33.3
03:40 1018 30.06 847 25.01 4.2 39.5 79 0.8 33.5
03:45 1018 30.06 847 25.01 4.1 39.3 78 0.5 32.9
03:50 1018 30.06 847 25.01 4.3 39.7 77 0.6 33
03:55 1018 30.06 847 25.01 4.4 39.9 76 0.6 33.1
04:00 1018 30.06 847 25.01 4.2 39.6 77 0.5 32.9
04:05 1018 30.06 847 25.01 4.1 39.5 77 0.5 32.8
04:10 1018 30.06 847 25.01 4.2 39.6 75 0.3 32.5
04:15 1018 30.06 847 25.01 4.4 40 76 0.5 32.9
04:20 1018 30.06 847 25.01 4.3 39.8 76 0.5 33
04:25 1018 30.06 847 25.01 4.3 39.8 75 0.3 32.5
04:30 1018 30.06 847 25.01 4.4 40 75 0.3 32.6
04:35 1018 30.06 847 25.01 4.4 40 75 0.4 32.7
04:40 1018 30.06 847 25.01 4.3 39.7 76 0.4 32.8
04:45 1018 30.06 847 25.01 4.2 39.6 76 0.3 32.6
04:50 1018 30.06 847 25.01 4.3 39.8 75 0.2 32.4
04:55 1018 30.06 847 25.01 4.5 40.2 74 0.4 32.7
05:00 1018 30.06 847 25.01 4.5 40 75 0.3 32.6
05:05 1018 30.06 847 25.01 4.4 39.9 76 0.5 32.8
05:10 1018 30.06 847 25.01 4.2 39.6 77 0.5 32.9
05:15 1018 30.06 847 25.01 4.1 39.3 78 0.5 32.9
05:20 1018 30.06 847 25.01 3.9 39.1 78 0.4 32.7
05:25 1018 30.06 847 25.01 4 39.3 78 0.5 32.8
05:30 1018 30.06 847 25.01 4 39.3 77 0.3 32.6
05:35 1018 30.06 847 25.01 4.2 39.6 75 0.2 32.3
05:40 1018 30.06 847 25.01 4.3 39.8 75 0.3 32.5
05:45 1018 30.06 847 25.01 4.3 39.8 75 0.4 32.7
05:50 1018 30.06 847 25.01 4.3 39.8 75 0.3 32.6
05:55 1018 30.06 847 25.01 4.3 39.8 74 0.1 32.2
06:00 1018 30.06 847 25.01 4.3 39.8 74 0.1 32.2
06:05 1018 30.06 847 25.01 4.5 40.1 72 -0.1 31.9
06:10 1018 30.06 847 25.01 4.6 40.2 72 0.1 32.1
06:15 1018 30.06 847 25.01 4.5 40 72 -0.1 31.9
06:20 1018 30.06 847 25.01 4.5 40.1 72 -0 32
06:25 1018 30.06 847 25.01 4.4 40 73 -0 31.9
06:30 1018 30.06 847 25.01 4.4 39.8 73 -0.1 31.8
06:35 1018 30.06 847 25.01 4.4 40 72 -0.1 31.9
06:40 1018 30.06 847 25.01 4.6 40.3 71 -0.2 31.6
06:45 1018 30.06 847 25.01 4.8 40.6 70 -0.2 31.6
06:50 1018 30.06 847 25.01 4.7 40.5 72 0.1 32.3
06:55 1018 30.06 847 25.01 4.4 39.9 74 0.2 32.4
07:00 1018 30.06 847 25.01 4.2 39.5 75 0.1 32.2
07:05 1018 30.06 847 25.01 4 39.2 75 0 32
07:10 1018 30.06 847 25.01 3.9 39 75 -0 31.9
07:15 1018 30.06 847 25.01 3.8 38.8 77 0.2 32.3
07:20 1018 30.06 847 25.01 3.6 38.5 79 0.2 32.4
07:25 1018 30.06 847 25.01 3.4 38.2 79 0.2 32.3
07:30 1018 30.06 847 25.01 3.4 38.2 79 0.1 32.2
07:35 1018 30.06 847 25.01 3.4 38.1 78 -0.1 31.8
07:40 1018 30.06 847 25.01 3.4 38.1 76 -0.4 31.3
07:45 1018 30.06 847 25.01 3.7 38.7 74 -0.4 31.2
07:50 1018 30.06 847 25.01 3.6 38.6 75 -0.3 31.5
07:55 1018 30.06 847 25.01 3.3 37.9 76 -0.5 31.1
08:00 1018 30.06 847 25.01 3.3 37.9 76 -0.6 31
08:05 1018 30.06 847 25.01 3.3 38 74 -0.9 30.4
08:10 1018 30.06 847 25.01 3.7 38.7 71 -1 30.2
08:15 1018 30.06 847 25.01 4.1 39.3 71 -0.7 30.8
08:20 1018 30.06 847 25.01 3.7 38.6 73 -0.7 30.7
08:25 1018 30.06 847 25.01 3.5 38.3 73 -0.9 30.4
08:30 1018 30.06 847 25.01 3.7 38.6 72 -1 30.2
08:35 1018 30.06 847 25.01 4 39.2 69 -1.2 29.9
08:40 1018 30.06 847 25.01 4.3 39.8 68 -1 30.2
08:45 1018 30.06 847 25.01 4.6 40.4 66 -1.2 29.9
08:50 1018 30.06 847 25.01 5.1 41.2 65 -1 30.2
08:55 1018 30.06 847 25.01 5.1 41.2 65 -0.9 30.4
09:00 1018 30.06 847 25.01 5.5 42 61 -1.3 29.6
09:05 1018 30.06 847 25.01 5.7 42.2 63 -0.9 30.4
09:10 1018 30.06 847 25.01 5.7 42.3 61 -1.1 30
09:15 1018 30.06 847 25.01 6.4 43.5 60 -0.8 30.6
09:20 1018 30.06 847 25.01 6.4 43.6 60 -0.7 30.8
09:25 1018 30.06 847 25.01 6.7 44 60 -0.6 30.9
09:30 1018 30.06 847 25.01 6.9 44.4 59 -0.6 30.9
09:35 1018 30.06 847 25.01 6.9 44.5 59 -0.5 31.1
09:40 1018 30.06 847 25.01 7.5 45.5 57 -0.4 31.2
09:45 1018 30.06 847 25.01 7.7 45.8 56 -0.4 31.3
09:50 1018 30.06 847 25.01 8.2 46.8 54 -0.6 31
09:55 1018 30.06 847 25.01 9 48.2 51 -0.6 31
10:00 1018 30.06 847 25.01 8.8 47.9 52 -0.4 31.3
10:05 1018 30.06 847 25.01 9.1 48.4 50 -0.8 30.6
10:10 1018 30.06 847 25.01 9.7 49.5 47 -1 30.3
10:15 1018 30.06 847 25.01 10.5 50.8 50 0.4 32.8
10:20 1018 30.06 847 25.01 10.5 50.9 46 -0.7 30.7
10:25 1018 30.06 847 25.01 10.4 50.7 45 -0.8 30.5
10:30 1018 30.06 847 25.01 10.6 51.1 46 -0.4 31.3
10:35 1018 30.06 847 25.01 10.1 50.2 50 0.1 32.3
10:40 1018 30.06 847 25.01 9.4 48.9 53 0.3 32.5
10:45 1018 30.06 847 25.01 9.7 49.4 50 -0.1 31.8
10:50 1018 30.06 847 25.01 11 51.8 46 -0.2 31.7
10:55 1018 30.06 847 25.01 10.6 51.1 48 0.1 32.2
11:00 1018 30.06 847 25.01 10.6 51.2 45 -0.7 30.7
11:05 1018 30.06 847 25.01 11.2 52.2 45 -0.3 31.4
11:10 1018 30.06 847 25.01 11.8 53.3 42 -0.6 30.9
11:15 1018 30.06 847 25.01 10.7 51.3 45 -0.6 30.9
11:20 1018 30.06 847 25.01 11.1 52 43 -0.9 30.3
11:25 1018 30.06 847 25.01 10.5 50.9 48 -0 32
11:30 1018 30.06 847 25.01 10.6 51.2 43 -1.4 29.5
11:35 1018 30.06 847 25.01 11.7 53.1 39 -1.8 28.8
11:40 1018 30.06 847 25.01 11.5 52.8 41 -1.2 29.8
11:45 1018 30.06 847 25.01 12.5 54.4 39 -1 30.2
11:50 1018 30.06 847 25.01 12.7 54.8 39 -0.8 30.6
11:55 1018 30.06 847 25.01 12.5 54.4 38 -1.4 29.4
12:00 1018 30.06 847 25.01 12.5 54.5 39 -1 30.3
12:05 1018 30.06 847 25.01 11.7 53.1 43 -0.5 31
12:10 1018 30.06 847 25.01 10.4 50.8 44 -1.2 29.9
12:15 1018 30.06 847 25.01 11.3 52.3 44 -0.5 31
12:20 1018 30.06 847 25.01 10.8 51.4 43 -1.3 29.7
12:25 1018 30.06 847 25.01 11.8 53.3 39 -1.7 29
12:30 1018 30.06 847 25.01 12.1 53.7 39 -1.3 29.7
12:35 1018 30.06 847 25.01 12.6 54.7 37 -1.8 28.8
12:40 1018 30.06 847 25.01 13.1 55.6 35 -1.8 28.8
12:45 1017 30.03 847 25.01 12.7 54.9 35 -2.3 27.8
12:50 1017 30.03 847 25.01 13.1 55.6 36 -1.7 29
12:55 1017 30.03 847 25.01 11.8 53.2 37 -2.4 27.7
13:00 1017 30.03 847 25.01 12.5 54.5 35 -2.6 27.2
13:05 1017 30.03 846 24.98 13.3 56 34 -2.1 28.1
13:10 1017 30.03 846 24.98 13.8 56.9 32 -2.4 27.6
13:15 1017 30.03 846 24.98 13.8 56.8 33 -2.3 27.8
13:20 1017 30.03 846 24.98 12.8 55 33 -2.9 26.8
13:25 1017 30.03 846 24.98 13.6 56.5 32 -2.8 27
13:30 1017 30.03 846 24.98 12.9 55.3 32 -3.2 26.2
13:35 1017 30.03 846 24.98 12.8 55 35 -2.4 27.8
13:40 1017 30.03 846 24.98 12 53.5 35 -2.8 26.9
13:45 1017 30.03 846 24.98 12.6 54.7 34 -3 26.6
13:50 1017 30.03 846 24.98 13 55.3 32 -3.4 25.9
13:55 1017 30.03 846 24.98 13.1 55.5 33 -2.8 27
14:00 1017 30.03 846 24.98 12.4 54.3 36 -2.1 28.3
14:05 1017 30.03 846 24.98 12.2 53.9 34 -3.3 26
14:10 1017 30.03 846 24.98 12.4 54.3 33 -3.4 25.9
14:15 1017 30.03 846 24.98 12.7 54.9 33 -3.2 26.3
14:20 1017 30.03 846 24.98 13.4 56.1 35 -1.8 28.7
14:25 1016 30 846 24.98 12.9 55.1 34 -2.7 27.1
14:30 1016 30 846 24.98 14.1 57.3 30 -3 26.6
14:35 1016 30 846 24.98 14 57.3 32 -2.4 27.8
14:40 1016 30 846 24.98 13.9 57.1 32 -2.3 27.8
14:45 1016 30 845 24.95 13.4 56.1 32 -3 26.5
14:50 1016 30 845 24.95 14.3 57.8 32 -2.1 28.2
14:55 1016 30 845 24.95 14.2 57.5 29 -3.5 25.8
15:00 1016 30 845 24.95 14.1 57.4 33 -1.7 28.9
15:05 1016 30 845 24.95 13.7 56.6 31 -3 26.5
15:10 1016 30 845 24.95 14.2 57.5 31 -2.7 27.2
15:15 1016 30 845 24.95 13.5 56.3 32 -3 26.6
15:20 1016 30 845 24.95 14.1 57.3 31 -2.6 27.3
15:25 1016 30 845 24.95 14.8 58.6 32 -1.6 29.1
15:30 1016 30 845 24.95 15.1 59.2 31 -1.8 28.7
15:35 1016 30 845 24.95 14 57.3 31 -2.6 27.3
15:40 1016 30 845 24.95 14 57.2 32 -2.5 27.5
15:45 1016 30 845 24.95 14.7 58.4 30 -2.5 27.6
15:50 1016 30 845 24.95 13.6 56.5 32 -2.8 27
15:55 1016 30 845 24.95 14.1 57.5 31 -2.5 27.5
16:00 1016 30 845 24.95 14.3 57.8 29 -3.2 26.2
16:05 1016 30 845 24.95 15.1 59.1 29 -2.6 27.2
16:10 1016 30 845 24.95 14.6 58.3 30 -2.8 27
16:15 1015 29.97 845 24.95 13.7 56.7 32 -2.7 27.2
16:20 1015 29.97 845 24.95 13.7 56.6 31 -3.3 26.1
16:25 1015 29.97 845 24.95 14.1 57.3 30 -3.1 26.5
16:30 1015 29.97 845 24.95 15 59 28 -3.2 26.2
16:35 1015 29.97 845 24.95 14.5 58.1 30 -2.9 26.7
16:40 1015 29.97 845 24.95 14.3 57.8 31 -2.7 27.2
16:45 1015 29.97 844 24.92 13.7 56.6 31 -3.1 26.4
16:50 1015 29.97 844 24.92 14.2 57.6 29 -3.5 25.7
16:55 1015 29.97 844 24.92 14.7 58.5 30 -2.6 27.3
17:00 1015 29.97 844 24.92 13.8 56.9 30 -3.2 26.3
17:05 1015 29.97 844 24.92 14 57.1 30 -3.1 26.4
17:10 1015 29.97 844 24.92 14.6 58.3 29 -3 26.6
17:15 1015 29.97 844 24.92 14.6 58.3 30 -2.6 27.2
17:20 1015 29.97 844 24.92 14.6 58.3 29 -3.2 26.2
17:25 1015 29.97 844 24.92 15 59 28 -3.2 26.2
17:30 1015 29.97 844 24.92 15.7 60.2 27 -3 26.7
17:35 1015 29.97 844 24.92 15.6 60.1 27 -3.1 26.4
17:40 1015 29.97 844 24.92 15.6 60.1 29 -2.3 27.8
17:45 1015 29.97 844 24.92 15.6 60.1 28 -2.8 27
17:50 1015 29.97 844 24.92 15.3 59.6 29 -2.6 27.3
17:55 1015 29.97 844 24.92 14.6 58.2 29 -3.1 26.5
18:00 1015 29.97 844 24.92 14.4 57.9 31 -2.4 27.7
18:05 1015 29.97 844 24.92 14.1 57.4 32 -2.5 27.5
18:10 1015 29.97 844 24.92 14.1 57.3 31 -2.8 27
18:15 1015 29.97 844 24.92 13.9 56.9 31 -2.9 26.8
18:20 1015 29.97 844 24.92 13.8 56.8 30 -3.2 26.2
18:25 1015 29.97 844 24.92 14.1 57.3 31 -2.7 27.1
18:30 1015 29.97 844 24.92 13.8 56.9 31 -3 26.5
18:35 1015 29.97 844 24.92 13.5 56.3 32 -2.9 26.8
18:40 1015 29.97 844 24.92 13.5 56.3 32 -2.7 27.1
18:45 1015 29.97 844 24.92 13.1 55.7 34 -2.5 27.5
18:50 1015 29.97 844 24.92 12.8 55 33 -3 26.6
18:55 1015 29.97 844 24.92 12.5 54.6 35 -2.6 27.3
19:00 1015 29.97 844 24.92 12.3 54.2 35 -2.8 27
19:05 1014 29.94 844 24.92 12.2 54 34 -3.1 26.5
19:10 1014 29.94 844 24.92 12.1 53.8 34 -3.2 26.3
19:15 1014 29.94 844 24.92 12 53.5 34 -3.4 25.9
19:20 1014 29.94 844 24.92 12 53.5 33 -3.6 25.5
19:25 1015 29.97 844 24.92 12 53.6 34 -3.5 25.8
19:30 1015 29.97 844 24.92 11.9 53.3 34 -3.6 25.5
19:35 1015 29.97 844 24.92 11.8 53.2 35 -3.2 26.3
19:40 1015 29.97 844 24.92 11.6 52.9 37 -2.7 27.1
19:45 1015 29.97 844 24.92 11.4 52.5 39 -1.8 28.7
19:50 1015 29.97 844 24.92 10.6 51 43 -1.4 29.5
19:55 1015 29.97 844 24.92 9.7 49.5 44 -1.8 28.7
20:00 1015 29.97 844 24.92 9.3 48.8 46 -1.7 29
20:05 1015 29.97 844 24.92 8.9 48.1 46 -2 28.5
20:10 1015 29.97 844 24.92 8.8 47.8 46 -2.1 28.3
20:15 1015 29.97 844 24.92 8.5 47.4 48 -2 28.5
20:20 1015 29.97 844 24.92 8.3 47 48 -2 28.3
20:25 1015 29.97 844 24.92 7.9 46.2 49 -2.1 28.2
20:30 1015 29.97 844 24.92 7.4 45.3 52 -1.8 28.8
20:35 1015 29.97 844 24.92 6.9 44.4 52 -2.2 28
20:40 1015 29.97 844 24.92 7.3 45.1 47 -3.2 26.3
20:45 1015 29.97 844 24.92 8.1 46.6 43 -3.8 25.2
20:50 1015 29.97 844 24.92 8.8 47.8 44 -2.7 27.2
20:55 1015 29.97 844 24.92 8.2 46.8 45 -3 26.6
21:00 1015 29.97 844 24.92 8.2 46.7 45 -2.9 26.7
21:05 1015 29.97 844 24.92 7.8 46 47 -2.7 27.1
21:10 1015 29.97 844 24.92 7.4 45.3 49 -2.6 27.4
21:15 1015 29.97 844 24.92 7.2 44.9 50 -2.4 27.6
21:20 1015 29.97 844 24.92 6.8 44.3 51 -2.7 27.2
21:25 1015 29.97 844 24.92 7 44.7 49 -2.9 26.8
21:30 1015 29.97 844 24.92 7.1 44.8 49 -2.8 27
21:35 1015 29.97 844 24.92 7 44.6 50 -2.7 27.1
21:40 1015 29.97 844 24.92 6.8 44.3 51 -2.7 27.1
21:45 1015 29.97 844 24.92 6.7 44 50 -2.9 26.8
21:50 1015 29.97 844 24.92 6.9 44.4 49 -3 26.7
21:55 1015 29.97 844 24.92 7.1 44.7 49 -2.9 26.7
22:00 1015 29.97 844 24.92 6.7 44 50 -2.9 26.8
22:05 1015 29.97 844 24.92 6.8 44.3 48 -3.3 26.1
22:10 1015 29.97 844 24.92 7 44.6 48 -3.1 26.3
22:15 1015 29.97 844 24.92 7.2 44.9 48 -3.2 26.3
22:20 1015 29.97 844 24.92 7 44.5 48 -3.2 26.3
22:25 1015 29.97 844 24.92 6.8 44.2 49 -3.2 26.2
22:30 1015 29.97 844 24.92 6.8 44.3 48 -3.4 25.9
22:35 1015 29.97 844 24.92 7 44.7 48 -3.3 26.1
22:40 1015 29.97 844 24.92 7 44.7 48 -3.3 26
22:45 1015 29.97 844 24.92 7.1 44.8 47 -3.3 26
22:50 1015 29.97 844 24.92 7.1 44.7 47 -3.4 25.9
22:55 1014 29.94 844 24.92 7 44.7 48 -3.2 26.2
23:00 1014 29.94 844 24.92 6.9 44.4 48 -3.3 26
23:05 1014 29.94 844 24.92 6.8 44.2 49 -3.2 26.3
23:10 1014 29.94 844 24.92 6.6 43.8 49 -3.3 26.1
23:15 1014 29.94 844 24.92 6.5 43.8 49 -3.4 25.9
23:20 1014 29.94 843 24.89 6.6 43.9 48 -3.5 25.7
23:25 1014 29.94 843 24.89 6.6 43.9 48 -3.5 25.7
23:30 1014 29.94 843 24.89 6.5 43.8 49 -3.5 25.7
23:35 1014 29.94 843 24.89 6.6 43.8 48 -3.6 25.5
23:40 1014 29.94 843 24.89 6.8 44.2 48 -3.5 25.8
23:45 1014 29.94 843 24.89 6.7 44 48 -3.5 25.7
23:50 1014 29.94 843 24.89 6.7 44.1 48 -3.6 25.6
23:55 1014 29.94 843 24.89 6.6 43.8 48 -3.6 25.4
24:00 1014 29.94 843 24.89 6.5 43.7 49 -3.5 25.6